Time;durP1;ratioP1;P1;durP2;ratioP2;P2;SDS_P1;SDS_P2;PMS_P1;PMS_P2;Temp;Humidity;BMP_temperature;BMP_pressure;BME280_temperature;BME280_humidity;BME280_pressure;Samples;Min_cycle;Max_cycle;Signal;HPM_P1;HPM_P2
2022/01/01 00:02:22;;;;;;;486.93;466.27;;;13.40;99.90;;;;;;5051416;28;20852;-82
2022/01/01 00:04:49;;;;;;;496.20;474.60;;;13.30;99.90;;;;;;5042234;28;20454;-81
2022/01/01 00:07:17;;;;;;;510.97;488.17;;;13.40;99.90;;;;;;5046382;28;20475;-81
2022/01/01 00:09:44;;;;;;;537.47;511.90;;;13.30;99.90;;;;;;5054100;28;20451;-81
2022/01/01 00:12:12;;;;;;;543.23;516.97;;;13.20;99.90;;;;;;5039879;28;20480;-82
2022/01/01 00:14:39;;;;;;;563.07;535.77;;;13.20;99.90;;;;;;5047590;28;20978;-81
2022/01/01 00:17:08;;;;;;;571.97;544.70;;;13.20;99.90;;;;;;5047958;28;20822;-81
2022/01/01 00:19:35;;;;;;;578.27;550.27;;;13.20;99.90;;;;;;5050689;28;20454;-81
2022/01/01 00:22:03;;;;;;;580.63;552.40;;;13.20;99.90;;;;;;5046050;28;20840;-82
2022/01/01 00:24:30;;;;;;;583.37;553.90;;;13.20;99.90;;;;;;5045188;28;20530;-82
2022/01/01 00:26:57;;;;;;;590.57;560.60;;;13.20;99.90;;;;;;5047396;28;20501;-82
2022/01/01 00:29:23;;;;;;;595.30;564.87;;;13.20;99.90;;;;;;5046646;28;20458;-81
2022/01/01 00:31:50;;;;;;;589.30;559.20;;;13.20;99.90;;;;;;5043257;28;20475;-82
2022/01/01 00:34:18;;;;;;;594.27;563.40;;;13.10;99.90;;;;;;5043655;28;20452;-82
2022/01/01 00:36:45;;;;;;;602.43;570.73;;;13.20;99.90;;;;;;5053029;28;20456;-81
2022/01/01 00:39:12;;;;;;;607.23;575.07;;;13.10;99.90;;;;;;5052763;28;20454;-81
2022/01/01 00:41:39;;;;;;;601.43;568.70;;;13.10;99.90;;;;;;5042345;28;20980;-81
2022/01/01 00:44:06;;;;;;;609.00;576.57;;;13.10;99.90;;;;;;5053440;28;20830;-82
2022/01/01 00:46:33;;;;;;;610.70;577.20;;;13.10;99.90;;;;;;5045908;28;20451;-81
2022/01/01 00:48:59;;;;;;;607.00;574.50;;;13.20;99.90;;;;;;5034240;28;20460;-81
2022/01/01 00:51:28;;;;;;;609.20;575.90;;;13.20;99.90;;;;;;5035520;28;20472;-81
2022/01/01 00:53:55;;;;;;;612.57;579.40;;;13.10;99.90;;;;;;5045741;28;20970;-81
2022/01/01 00:56:22;;;;;;;597.77;565.43;;;13.10;99.90;;;;;;5043904;28;20448;-81
2022/01/01 00:58:48;;;;;;;586.33;554.77;;;13.20;99.90;;;;;;5053308;28;20451;-81
2022/01/01 01:01:15;;;;;;;580.03;547.27;;;13.10;99.90;;;;;;5045475;28;20468;-81
2022/01/01 01:03:42;;;;;;;575.03;544.40;;;13.20;99.90;;;;;;5058902;28;20947;-81
2022/01/01 01:06:10;;;;;;;569.23;539.17;;;13.10;99.90;;;;;;5058467;28;21096;-81
2022/01/01 01:08:38;;;;;;;566.63;535.87;;;13.20;99.90;;;;;;5017993;28;20473;-81
2022/01/01 01:11:08;;;;;;;567.47;537.47;;;13.20;99.90;;;;;;5039212;28;20449;-81
2022/01/01 01:13:34;;;;;;;566.57;537.07;;;13.20;99.90;;;;;;5032998;28;20448;-82
2022/01/01 01:16:01;;;;;;;560.97;532.57;;;13.20;99.90;;;;;;5039571;28;20531;-81
2022/01/01 01:18:28;;;;;;;553.60;524.33;;;13.30;99.90;;;;;;5030682;28;20449;-81
2022/01/01 01:20:55;;;;;;;552.63;524.67;;;13.20;99.90;;;;;;5033632;28;20452;-81
2022/01/01 01:23:21;;;;;;;559.13;529.80;;;13.10;99.90;;;;;;5059822;22;20472;-82
2022/01/01 01:25:49;;;;;;;548.60;521.47;;;13.10;99.90;;;;;;5036434;28;20452;-82
2022/01/01 01:28:16;;;;;;;540.10;512.57;;;13.10;99.90;;;;;;5035530;28;20487;-82
2022/01/01 01:30:43;;;;;;;531.77;505.73;;;13.20;99.90;;;;;;5036320;28;20539;-81
2022/01/01 01:33:11;;;;;;;526.80;501.40;;;13.10;99.90;;;;;;5032507;28;20473;-82
2022/01/01 01:35:38;;;;;;;185.47;177.00;;;13.10;99.90;;;;;;5023682;28;20831;-82
2022/01/01 01:38:05;;;;;;;165.07;156.23;;;13.30;99.90;;;;;;5025169;28;20456;-80
2022/01/01 01:40:32;;;;;;;80.27;75.27;;;13.30;99.90;;;;;;5016187;28;20453;-82
2022/01/01 01:43:07;;;;;;;71.53;67.23;;;13.50;99.90;;;;;;5025232;28;20473;-82
2022/01/01 01:45:34;;;;;;;59.43;54.97;;;13.50;99.90;;;;;;5023726;28;20456;-82
2022/01/01 01:48:00;;;;;;;67.70;62.60;;;13.50;99.90;;;;;;5018537;28;20843;-82
2022/01/01 01:50:27;;;;;;;84.27;79.20;;;13.40;99.90;;;;;;5036335;28;20448;-82
2022/01/01 01:52:56;;;;;;;101.50;96.30;;;13.40;99.90;;;;;;5022020;28;20481;-82
2022/01/01 01:55:23;;;;;;;118.00;112.13;;;13.50;99.90;;;;;;5031272;28;20547;-82
2022/01/01 01:57:50;;;;;;;137.33;130.73;;;13.40;99.90;;;;;;5025255;28;20452;-83
2022/01/01 02:00:44;;;;;;;169.07;160.43;;;13.40;99.90;;;;;;5016351;28;20460;-81
2022/01/01 02:03:11;;;;;;;199.93;190.83;;;13.40;99.90;;;;;;5028501;28;20473;-82
2022/01/01 02:05:39;;;;;;;208.33;199.83;;;13.30;99.90;;;;;;5027734;28;20456;-82
2022/01/01 02:08:07;;;;;;;232.17;223.30;;;13.30;99.90;;;;;;5020282;28;20479;-80
2022/01/01 02:10:35;;;;;;;222.87;214.17;;;13.40;99.90;;;;;;5020602;28;20454;-82
2022/01/01 02:13:10;;;;;;;195.60;188.00;;;13.30;99.90;;;;;;5030212;28;20937;-82
2022/01/01 02:15:46;;;;;;;159.07;151.50;;;13.40;99.90;;;;;;5036312;28;20488;-82
2022/01/01 02:18:13;;;;;;;39.93;37.13;;;13.40;99.90;;;;;;5018701;28;20815;-83
2022/01/01 02:20:43;;;;;;;61.87;57.90;;;13.50;99.90;;;;;;5027659;28;20448;-82
2022/01/01 02:23:14;;;;;;;97.77;91.77;;;13.50;99.90;;;;;;5034234;28;20484;-82
2022/01/01 02:25:41;;;;;;;109.23;103.47;;;13.40;99.90;;;;;;5016881;28;20457;-82
2022/01/01 02:28:10;;;;;;;122.07;116.37;;;13.40;99.90;;;;;;5024473;28;20476;-80
2022/01/01 02:30:37;;;;;;;127.73;122.13;;;13.40;99.90;;;;;;5031421;28;20457;-82
2022/01/01 02:33:04;;;;;;;153.73;146.93;;;13.40;99.90;;;;;;5019320;28;20473;-82
2022/01/01 02:35:30;;;;;;;193.23;185.13;;;13.30;99.90;;;;;;5021916;28;20448;-82
2022/01/01 02:37:59;;;;;;;214.63;205.97;;;13.30;99.90;;;;;;5025466;28;20448;-82
2022/01/01 02:40:25;;;;;;;263.87;254.27;;;13.20;99.90;;;;;;5022961;28;20456;-82
2022/01/01 02:42:53;;;;;;;294.37;283.30;;;13.30;99.90;;;;;;5032207;28;20840;-82
2022/01/01 02:45:20;;;;;;;331.43;319.20;;;13.20;99.90;;;;;;5028297;28;20893;-82
2022/01/01 02:47:47;;;;;;;353.20;340.33;;;13.20;99.90;;;;;;5032719;28;20464;-82
2022/01/01 02:50:14;;;;;;;374.07;361.03;;;13.10;99.90;;;;;;5032498;28;20940;-82
2022/01/01 02:52:41;;;;;;;395.00;380.43;;;13.10;99.90;;;;;;5023221;28;20983;-82
2022/01/01 02:55:10;;;;;;;408.97;393.63;;;13.10;99.90;;;;;;5036254;28;20456;-81
2022/01/01 02:57:37;;;;;;;411.97;395.87;;;13.10;99.90;;;;;;5035428;28;20833;-83
2022/01/01 03:00:05;;;;;;;420.63;404.60;;;13.20;99.90;;;;;;5018771;28;20831;-82
2022/01/01 03:02:32;;;;;;;421.80;405.57;;;13.10;99.90;;;;;;5031456;28;20468;-82
2022/01/01 03:05:00;;;;;;;423.83;407.53;;;13.20;99.90;;;;;;5021342;28;20887;-82
2022/01/01 03:07:27;;;;;;;425.37;409.10;;;13.10;99.90;;;;;;5033278;28;20458;-82
2022/01/01 03:09:53;;;;;;;427.03;410.63;;;13.10;99.90;;;;;;5021459;28;20908;-82
2022/01/01 03:12:21;;;;;;;429.40;413.20;;;13.10;99.90;;;;;;5015819;28;20477;-82
2022/01/01 03:14:48;;;;;;;438.17;421.33;;;13.10;99.90;;;;;;5028050;28;20455;-82
2022/01/01 03:17:15;;;;;;;435.37;417.97;;;13.10;99.90;;;;;;5024344;28;20453;-82
2022/01/01 03:19:42;;;;;;;439.33;422.13;;;13.10;99.90;;;;;;5025569;28;20459;-82
2022/01/01 03:22:08;;;;;;;422.17;405.97;;;13.10;99.90;;;;;;5019331;28;20477;-82
2022/01/01 03:24:35;;;;;;;417.23;401.37;;;13.10;99.90;;;;;;5017293;28;20452;-82
2022/01/01 03:27:02;;;;;;;408.50;392.97;;;13.10;99.90;;;;;;5015195;28;20980;-82
2022/01/01 03:29:32;;;;;;;401.03;385.93;;;13.10;99.90;;;;;;5031144;28;20483;-82
2022/01/01 03:31:59;;;;;;;404.27;389.57;;;13.10;99.90;;;;;;5017179;28;20469;-82
2022/01/01 03:34:26;;;;;;;386.57;372.27;;;13.10;99.90;;;;;;5023185;28;20459;-81
2022/01/01 03:36:53;;;;;;;366.93;353.50;;;13.10;99.90;;;;;;5021207;28;20817;-82
2022/01/01 03:39:22;;;;;;;362.97;349.30;;;13.10;99.90;;;;;;5023648;28;20449;-82
2022/01/01 03:41:48;;;;;;;376.90;362.77;;;13.10;99.90;;;;;;5034279;28;20881;-82
2022/01/01 03:44:15;;;;;;;370.80;357.07;;;13.00;99.90;;;;;;5024995;28;20449;-83
2022/01/01 03:46:43;;;;;;;378.60;364.43;;;13.10;99.90;;;;;;5023420;28;20453;-82
2022/01/01 03:49:10;;;;;;;392.50;376.83;;;13.00;99.90;;;;;;5025656;28;20492;-82
2022/01/01 03:51:37;;;;;;;372.50;358.90;;;13.00;99.90;;;;;;5015668;28;20453;-82
2022/01/01 03:54:03;;;;;;;393.63;378.33;;;13.10;99.90;;;;;;5024928;28;20634;-82
2022/01/01 03:56:30;;;;;;;376.00;362.30;;;13.00;99.90;;;;;;5030157;28;20459;-82
2022/01/01 03:58:57;;;;;;;373.37;359.60;;;13.00;99.90;;;;;;5028687;28;20449;-82
2022/01/01 04:01:24;;;;;;;344.70;332.10;;;13.00;99.90;;;;;;5023643;28;20456;-82
2022/01/01 04:03:52;;;;;;;365.97;353.20;;;13.00;99.90;;;;;;5029989;28;20450;-82
2022/01/01 04:06:18;;;;;;;368.80;355.33;;;13.00;99.90;;;;;;5026555;28;20459;-82
2022/01/01 04:08:45;;;;;;;388.60;374.70;;;13.00;99.90;;;;;;5035068;28;20504;-81
2022/01/01 04:11:12;;;;;;;424.47;408.50;;;12.90;99.90;;;;;;5027820;28;20453;-82
2022/01/01 04:14:13;;;;;;;438.20;421.80;;;12.90;99.90;;;;;;5020746;28;20468;-82
2022/01/01 04:16:40;;;;;;;447.00;430.50;;;12.80;99.90;;;;;;5026188;28;20444;-83
2022/01/01 04:19:08;;;;;;;464.57;446.90;;;12.80;99.90;;;;;;5022325;28;20476;-82
2022/01/01 04:21:35;;;;;;;468.60;450.53;;;12.70;99.90;;;;;;5032214;28;20452;-82
2022/01/01 04:24:03;;;;;;;464.73;446.73;;;12.70;99.90;;;;;;5020206;28;20955;-79
2022/01/01 04:26:29;;;;;;;454.13;436.27;;;12.70;99.90;;;;;;5023626;28;20482;-82
2022/01/01 04:28:56;;;;;;;442.37;425.87;;;12.70;99.90;;;;;;5024243;28;20491;-79
2022/01/01 04:31:23;;;;;;;439.97;423.90;;;12.80;99.90;;;;;;5025581;28;20449;-81
2022/01/01 04:33:50;;;;;;;420.50;404.77;;;12.70;99.90;;;;;;5030047;28;20456;-83
2022/01/01 04:36:18;;;;;;;409.03;394.03;;;12.70;99.90;;;;;;5020719;28;20964;-81
2022/01/01 04:38:45;;;;;;;406.20;391.60;;;12.70;99.90;;;;;;5017032;28;20455;-82
2022/01/01 04:41:13;;;;;;;390.07;375.97;;;12.70;99.90;;;;;;5030858;28;20529;-82
2022/01/01 04:43:41;;;;;;;385.30;371.40;;;12.80;99.90;;;;;;5031141;28;21014;-82
2022/01/01 04:46:08;;;;;;;407.40;392.00;;;12.70;99.90;;;;;;5036146;28;21125;-82
2022/01/01 04:48:37;;;;;;;411.03;393.40;;;12.70;99.90;;;;;;5034365;28;20468;-84
2022/01/01 04:51:05;;;;;;;390.17;376.40;;;12.70;99.90;;;;;;5027175;28;20488;-82
2022/01/01 04:53:33;;;;;;;393.80;379.93;;;12.70;99.90;;;;;;5018589;28;20471;-82
2022/01/01 04:56:04;;;;;;;404.33;389.80;;;12.70;99.90;;;;;;5016975;28;20548;-82
2022/01/01 04:58:31;;;;;;;398.50;384.37;;;12.70;99.90;;;;;;5029211;28;20885;-83
2022/01/01 05:00:58;;;;;;;386.40;372.80;;;12.70;99.90;;;;;;5026499;28;20456;-82
2022/01/01 05:03:25;;;;;;;377.17;363.53;;;12.70;99.90;;;;;;5018453;28;20480;-82
2022/01/01 05:05:51;;;;;;;371.67;357.97;;;12.80;99.90;;;;;;5036673;28;20479;-82
2022/01/01 05:08:18;;;;;;;370.03;357.10;;;12.70;99.90;;;;;;5035432;28;20858;-82
2022/01/01 05:10:46;;;;;;;374.67;360.93;;;12.70;99.90;;;;;;5017092;28;20453;-82
2022/01/01 05:13:14;;;;;;;379.77;366.10;;;12.70;99.90;;;;;;5016993;28;20481;-81
2022/01/01 05:15:40;;;;;;;371.90;358.80;;;12.60;99.90;;;;;;5019753;28;20454;-82
2022/01/01 05:18:07;;;;;;;369.70;357.07;;;12.70;99.90;;;;;;5034104;28;20453;-81
2022/01/01 05:20:34;;;;;;;314.50;303.20;;;12.60;99.90;;;;;;5033861;28;20449;-80
2022/01/01 05:23:01;;;;;;;310.70;300.50;;;12.70;99.90;;;;;;5022035;28;20508;-83
2022/01/01 05:25:28;;;;;;;283.77;274.17;;;12.80;99.90;;;;;;5033948;28;20448;-82
2022/01/01 05:27:56;;;;;;;257.37;248.00;;;12.70;99.90;;;;;;5026369;28;20456;-82
2022/01/01 05:30:22;;;;;;;239.60;231.47;;;12.70;99.90;;;;;;5031962;28;20455;-83
2022/01/01 05:32:49;;;;;;;184.87;178.27;;;12.80;99.90;;;;;;5032484;28;20473;-81
2022/01/01 05:35:16;;;;;;;162.00;155.90;;;12.70;99.90;;;;;;5053874;28;20449;-82
2022/01/01 05:37:42;;;;;;;148.20;142.80;;;12.80;99.90;;;;;;5040529;28;20445;-82
2022/01/01 05:40:10;;;;;;;139.97;134.17;;;12.80;99.90;;;;;;5027186;28;20448;-82
2022/01/01 05:42:37;;;;;;;95.07;91.10;;;12.80;99.90;;;;;;5028149;28;20475;-82
2022/01/01 05:45:06;;;;;;;84.03;79.03;;;12.90;99.90;;;;;;5035991;28;20467;-82
2022/01/01 05:47:33;;;;;;;97.90;93.23;;;12.90;99.90;;;;;;5022838;28;20476;-82
2022/01/01 05:49:59;;;;;;;85.53;80.67;;;12.90;99.90;;;;;;5015158;28;20527;-82
2022/01/01 05:52:26;;;;;;;97.87;93.07;;;12.90;99.90;;;;;;5026642;28;20476;-82
2022/01/01 05:54:53;;;;;;;98.87;94.70;;;12.90;99.90;;;;;;5031898;28;20449;-83
2022/01/01 05:57:20;;;;;;;84.30;80.13;;;12.90;99.90;;;;;;5031045;28;20455;-82
2022/01/01 05:59:47;;;;;;;74.83;71.13;;;12.90;99.90;;;;;;5034873;28;20459;-82
2022/01/01 06:02:15;;;;;;;60.57;57.43;;;12.80;99.90;;;;;;5023952;28;20475;-82
2022/01/01 06:04:41;;;;;;;48.03;45.50;;;12.90;99.90;;;;;;5015602;28;20461;-83
2022/01/01 06:07:09;;;;;;;51.40;48.70;;;12.90;99.90;;;;;;5029773;28;20672;-82
2022/01/01 06:09:36;;;;;;;48.20;45.10;;;12.90;99.90;;;;;;5035722;28;20515;-83
2022/01/01 06:12:03;;;;;;;55.20;52.37;;;13.00;99.90;;;;;;5031684;28;20484;-82
2022/01/01 06:14:29;;;;;;;56.73;53.73;;;13.00;99.90;;;;;;5015896;28;20453;-82
2022/01/01 06:16:56;;;;;;;51.07;48.47;;;13.00;99.90;;;;;;5016504;28;20461;-83
2022/01/01 06:19:24;;;;;;;42.07;39.37;;;12.90;99.90;;;;;;5015276;28;20452;-82
2022/01/01 06:21:51;;;;;;;43.50;41.00;;;12.90;99.90;;;;;;5015216;28;20876;-82
2022/01/01 06:24:17;;;;;;;43.83;41.13;;;13.00;99.90;;;;;;5035462;28;20456;-82
2022/01/01 06:26:44;;;;;;;37.40;34.97;;;12.90;99.90;;;;;;5022331;28;21126;-81
2022/01/01 06:29:11;;;;;;;31.47;28.80;;;13.00;99.90;;;;;;5014988;28;20473;-82
2022/01/01 06:31:38;;;;;;;29.40;26.60;;;13.00;99.90;;;;;;5015075;28;20953;-81
2022/01/01 06:34:04;;;;;;;26.87;24.87;;;13.00;99.90;;;;;;5014629;28;20453;-82
2022/01/01 06:36:33;;;;;;;26.17;24.33;;;12.90;99.90;;;;;;5013008;28;20453;-83
2022/01/01 06:38:59;;;;;;;28.80;26.60;;;12.90;99.90;;;;;;5013741;28;20446;-81
2022/01/01 06:41:26;;;;;;;30.60;28.13;;;13.00;99.90;;;;;;5017915;28;20449;-81
2022/01/01 06:43:53;;;;;;;28.50;26.17;;;12.90;99.90;;;;;;5023534;28;20456;-82
2022/01/01 06:46:20;;;;;;;26.33;23.77;;;13.00;99.90;;;;;;5035701;28;20456;-82
2022/01/01 06:48:47;;;;;;;22.30;20.50;;;13.10;99.90;;;;;;5029355;28;20476;-82
2022/01/01 06:51:14;;;;;;;19.43;17.93;;;13.00;99.90;;;;;;5034948;28;20826;-82
2022/01/01 06:53:42;;;;;;;17.47;15.70;;;13.00;99.90;;;;;;5016071;28;20860;-83
2022/01/01 06:56:09;;;;;;;20.77;18.90;;;13.00;99.90;;;;;;5015803;28;20461;-81
2022/01/01 06:58:37;;;;;;;27.80;25.50;;;13.00;99.90;;;;;;5032505;28;20452;-83
2022/01/01 07:01:03;;;;;;;23.33;21.67;;;12.90;99.90;;;;;;5027847;28;20460;-82
2022/01/01 07:03:30;;;;;;;30.40;28.53;;;12.90;99.90;;;;;;5014643;28;20469;-82
2022/01/01 07:05:57;;;;;;;24.97;22.83;;;12.90;99.90;;;;;;4994746;28;20454;-83
2022/01/01 07:08:24;;;;;;;32.47;29.80;;;12.90;99.90;;;;;;5031251;28;20460;-83
2022/01/01 07:10:52;;;;;;;33.87;31.67;;;12.80;99.90;;;;;;5025293;28;20453;-80
2022/01/01 07:13:19;;;;;;;38.93;35.80;;;12.80;99.90;;;;;;5032414;28;20476;-83
2022/01/01 07:15:45;;;;;;;26.57;24.43;;;12.80;99.90;;;;;;5026885;28;20461;-83
2022/01/01 07:18:12;;;;;;;26.63;24.60;;;12.80;99.90;;;;;;5029166;28;20470;-81
2022/01/01 07:20:39;;;;;;;26.80;25.10;;;12.80;99.90;;;;;;5027950;28;20810;-83
2022/01/01 07:23:06;;;;;;;28.20;26.27;;;12.80;99.90;;;;;;5031306;28;20481;-84
2022/01/01 07:25:33;;;;;;;32.83;30.63;;;12.80;99.90;;;;;;5039719;28;20459;-84
2022/01/01 07:28:01;;;;;;;28.50;26.80;;;12.80;99.90;;;;;;5031253;28;20449;-83
2022/01/01 07:30:28;;;;;;;26.33;24.47;;;12.80;99.90;;;;;;5030344;28;20481;-84
2022/01/01 07:32:54;;;;;;;27.13;25.50;;;12.80;99.90;;;;;;5032759;28;20476;-84
2022/01/01 07:35:22;;;;;;;24.43;22.80;;;12.80;99.90;;;;;;5046604;28;20453;-82
2022/01/01 07:37:49;;;;;;;27.33;25.33;;;12.80;99.90;;;;;;5043926;28;20462;-84
2022/01/01 07:40:18;;;;;;;26.73;24.70;;;12.80;99.90;;;;;;5049828;28;20448;-82
2022/01/01 07:42:46;;;;;;;25.97;24.17;;;12.80;99.90;;;;;;5040017;28;20500;-84
2022/01/01 07:45:14;;;;;;;27.00;25.10;;;12.80;99.90;;;;;;5039522;28;20448;-83
2022/01/01 07:47:41;;;;;;;28.60;26.53;;;12.80;99.90;;;;;;5039225;28;20452;-83
2022/01/01 07:50:10;;;;;;;25.53;24.03;;;12.80;99.90;;;;;;5035892;28;20468;-83
2022/01/01 07:52:36;;;;;;;24.13;22.37;;;12.80;99.90;;;;;;5041483;28;20529;-82
2022/01/01 07:55:03;;;;;;;26.20;24.07;;;12.80;99.90;;;;;;5045989;28;20461;-83
2022/01/01 07:57:30;;;;;;;21.73;20.13;;;12.80;99.90;;;;;;5047638;28;20457;-84
2022/01/01 07:59:57;;;;;;;30.67;28.53;;;12.80;99.90;;;;;;5031831;28;20456;-84
2022/01/01 08:02:25;;;;;;;40.47;38.27;;;12.90;99.90;;;;;;5047871;28;20572;-83
2022/01/01 08:04:52;;;;;;;37.07;34.63;;;12.70;99.90;;;;;;5047506;28;20455;-84
2022/01/01 08:07:19;;;;;;;40.17;38.13;;;12.80;99.90;;;;;;5040934;28;20453;-83
2022/01/01 08:09:46;;;;;;;40.17;37.87;;;12.70;99.90;;;;;;5030648;28;20838;-82
2022/01/01 08:12:12;;;;;;;38.90;36.40;;;12.80;99.90;;;;;;5031456;28;20469;-83
2022/01/01 08:14:39;;;;;;;33.50;31.30;;;12.80;99.90;;;;;;5031899;28;20997;-83
2022/01/01 08:17:07;;;;;;;32.27;29.43;;;12.80;99.90;;;;;;5041583;28;20463;-83
2022/01/01 08:19:35;;;;;;;28.57;26.27;;;12.90;99.90;;;;;;5047826;28;20516;-82
2022/01/01 08:22:03;;;;;;;37.10;35.30;;;12.90;99.90;;;;;;5047322;28;20545;-83
2022/01/01 08:24:29;;;;;;;31.00;29.30;;;12.80;99.90;;;;;;5040907;28;20528;-83
2022/01/01 08:26:56;;;;;;;33.73;31.53;;;13.00;99.90;;;;;;5025890;28;20456;-84
2022/01/01 08:29:24;;;;;;;36.70;34.80;;;13.10;99.90;;;;;;5039882;28;20548;-84
2022/01/01 08:31:51;;;;;;;30.60;28.73;;;13.10;99.90;;;;;;5027366;28;20847;-84
2022/01/01 08:34:19;;;;;;;22.90;21.00;;;13.20;99.90;;;;;;5022432;28;20457;-83
2022/01/01 08:36:47;;;;;;;22.70;17.40;;;13.20;99.90;;;;;;5021597;28;20481;-84
2022/01/01 08:39:16;;;;;;;16.73;15.23;;;13.20;99.90;;;;;;5021327;28;20453;-85
2022/01/01 08:41:43;;;;;;;15.33;13.73;;;13.40;99.90;;;;;;5037881;28;20463;-84
2022/01/01 08:44:10;;;;;;;18.30;16.90;;;13.40;99.90;;;;;;5019801;28;20457;-83
2022/01/01 08:46:37;;;;;;;21.80;19.83;;;13.30;99.90;;;;;;5020660;28;20476;-83
2022/01/01 08:49:05;;;;;;;29.10;27.30;;;13.30;99.90;;;;;;5019381;28;20884;-84
2022/01/01 08:51:34;;;;;;;26.40;25.00;;;13.10;99.90;;;;;;5017642;28;20517;-84
2022/01/01 08:54:02;;;;;;;28.23;26.20;;;13.10;99.90;;;;;;5026677;28;20849;-87
2022/01/01 08:56:29;;;;;;;17.47;16.30;;;13.00;99.90;;;;;;5038109;28;20467;-83
2022/01/01 08:58:56;;;;;;;20.40;19.10;;;13.00;99.90;;;;;;5031427;28;20804;-84
2022/01/01 09:01:23;;;;;;;17.97;16.70;;;12.90;99.90;;;;;;5025907;28;20452;-84
2022/01/01 09:03:50;;;;;;;20.70;19.47;;;13.00;99.90;;;;;;5018086;28;20480;-84
2022/01/01 09:06:16;;;;;;;23.03;21.33;;;13.10;99.90;;;;;;5036304;28;20448;-83
2022/01/01 09:08:44;;;;;;;19.47;17.53;;;13.10;99.90;;;;;;5033230;28;20455;-83
2022/01/01 09:11:14;;;;;;;19.93;18.43;;;13.20;99.90;;;;;;5028273;28;20477;-83
2022/01/01 09:13:43;;;;;;;21.97;17.60;;;13.30;99.90;;;;;;5023523;28;20479;-82
2022/01/01 09:16:11;;;;;;;18.57;16.87;;;13.50;99.90;;;;;;5026204;28;21008;-82
2022/01/01 09:18:38;;;;;;;19.10;17.33;;;13.50;99.90;;;;;;5017426;28;20505;-82
2022/01/01 09:21:05;;;;;;;17.53;14.27;;;13.60;99.90;;;;;;5018968;28;20567;-83
2022/01/01 09:23:32;;;;;;;13.47;12.27;;;13.70;99.90;;;;;;5032994;28;20480;-82
2022/01/01 09:26:00;;;;;;;11.60;8.50;;;13.80;99.90;;;;;;5019523;28;20459;-83
2022/01/01 09:28:28;;;;;;;9.43;8.43;;;13.90;99.90;;;;;;5017846;28;20544;-83
2022/01/01 09:30:55;;;;;;;12.40;7.73;;;14.00;99.90;;;;;;5020710;28;20481;-83
2022/01/01 09:33:23;;;;;;;8.50;6.30;;;14.20;99.90;;;;;;5021910;28;20479;-83
2022/01/01 09:35:50;;;;;;;14.73;6.40;;;14.30;99.90;;;;;;5030056;28;20448;-83
2022/01/01 09:38:17;;;;;;;8.70;5.70;;;14.30;99.90;;;;;;5030776;28;20452;-83
2022/01/01 09:40:48;;;;;;;8.77;4.90;;;14.30;99.90;;;;;;5017924;28;20945;-83
2022/01/01 09:43:15;;;;;;;8.30;5.27;;;14.30;99.90;;;;;;5016124;28;20500;-84
2022/01/01 09:45:44;;;;;;;8.43;4.60;;;14.30;99.90;;;;;;5016688;28;20451;-83
2022/01/01 09:48:13;;;;;;;8.17;4.87;;;14.30;99.90;;;;;;5016330;28;20457;-82
2022/01/01 09:50:42;;;;;;;11.20;4.60;;;14.20;99.90;;;;;;5016639;28;20477;-83
2022/01/01 09:53:08;;;;;;;7.00;4.07;;;14.30;99.90;;;;;;5017957;28;20895;-82
2022/01/01 09:55:36;;;;;;;11.60;5.00;;;14.30;99.90;;;;;;5016506;28;20454;-83
2022/01/01 09:58:03;;;;;;;11.83;4.63;;;14.30;99.90;;;;;;5020021;28;20457;-83
2022/01/01 10:00:29;;;;;;;8.80;4.60;;;14.30;99.90;;;;;;5037201;28;20453;-83
2022/01/01 10:02:57;;;;;;;13.73;4.40;;;14.30;99.90;;;;;;5020823;28;20473;-83
2022/01/01 10:05:24;;;;;;;11.60;4.77;;;14.30;99.90;;;;;;5017356;28;20489;-83
2022/01/01 10:07:51;;;;;;;8.60;4.47;;;14.30;99.90;;;;;;5021706;28;20454;-83
2022/01/01 10:10:20;;;;;;;14.50;4.57;;;14.30;99.90;;;;;;5016403;28;20480;-83
2022/01/01 10:12:47;;;;;;;10.07;4.97;;;14.40;99.90;;;;;;5018238;28;20480;-83
2022/01/01 10:15:15;;;;;;;6.53;4.07;;;14.40;99.90;;;;;;5027149;28;20464;-80
2022/01/01 10:17:42;;;;;;;12.70;4.20;;;14.40;99.90;;;;;;5026507;28;20453;-83
2022/01/01 10:20:11;;;;;;;16.90;4.50;;;14.40;99.90;;;;;;5016300;28;20980;-82
2022/01/01 10:22:39;;;;;;;8.37;3.53;;;14.40;99.90;;;;;;5016870;28;20488;-83
2022/01/01 10:27:55;;;;;;;8.43;3.70;;;14.50;99.90;;;;;;5035504;28;20489;-84
2022/01/01 10:30:25;;;;;;;11.33;4.90;;;14.50;99.90;;;;;;5026311;28;20469;-83
2022/01/01 10:33:03;;;;;;;18.27;3.90;;;14.60;99.90;;;;;;5018536;28;20956;-83
2022/01/01 10:35:37;;;;;;;9.17;4.50;;;14.70;99.90;;;;;;5018632;28;20458;-83
2022/01/01 10:38:06;;;;;;;8.87;4.37;;;14.70;99.90;;;;;;5019392;28;20517;-83
2022/01/01 10:40:33;;;;;;;10.10;4.80;;;14.70;99.90;;;;;;5024438;28;20454;-82
2022/01/01 10:43:00;;;;;;;7.70;5.20;;;14.80;99.90;;;;;;5033285;28;20469;-82
2022/01/01 10:45:35;;;;;;;6.53;4.03;;;14.70;99.90;;;;;;5035152;28;20450;-83
2022/01/01 10:48:17;;;;;;;6.63;4.00;;;14.70;99.90;;;;;;5030516;28;20460;-83
2022/01/01 10:50:46;;;;;;;16.27;4.77;;;14.80;99.90;;;;;;5017223;28;20503;-83
2022/01/01 10:53:15;;;;;;;10.13;4.60;;;14.80;99.90;;;;;;5016695;28;20473;-84
2022/01/01 10:55:43;;;;;;;8.33;4.60;;;14.80;99.90;;;;;;5016485;28;20455;-83
2022/01/01 10:58:16;;;;;;;9.40;4.63;;;14.90;99.90;;;;;;5015384;28;20463;-82
2022/01/01 11:00:43;;;;;;;8.57;4.50;;;14.90;99.90;;;;;;5016324;28;20450;-84
2022/01/01 11:03:10;;;;;;;7.17;3.87;;;15.00;99.90;;;;;;5015595;28;20902;-82
2022/01/01 11:05:38;;;;;;;9.37;4.83;;;15.00;99.90;;;;;;5016291;28;20455;-83
2022/01/01 11:08:08;;;;;;;14.47;5.73;;;15.10;99.90;;;;;;5016468;28;20843;-81
2022/01/01 11:10:36;;;;;;;8.70;4.37;;;15.10;99.90;;;;;;5015592;28;20483;-83
2022/01/01 11:13:05;;;;;;;9.63;4.70;;;15.00;99.90;;;;;;5015139;28;20477;-83
2022/01/01 11:15:32;;;;;;;10.40;4.03;;;15.10;99.90;;;;;;5015332;28;20467;-83
2022/01/01 11:18:01;;;;;;;7.83;3.97;;;15.10;99.90;;;;;;5015105;28;20486;-83
2022/01/01 11:20:33;;;;;;;10.50;4.40;;;15.20;99.90;;;;;;5015522;28;20538;-83
2022/01/01 11:23:05;;;;;;;8.10;4.20;;;15.30;99.90;;;;;;5015592;28;20495;-83
2022/01/01 11:26:02;;;;;;;9.10;3.83;;;15.20;99.90;;;;;;5018906;28;20455;-83
2022/01/01 11:28:28;;;;;;;6.83;4.00;;;15.10;99.90;;;;;;5015271;28;20455;-83
2022/01/01 11:31:00;;;;;;;8.83;4.33;;;15.10;99.90;;;;;;5015511;28;20510;-83
2022/01/01 11:33:30;;;;;;;10.27;4.00;;;15.10;99.90;;;;;;5014903;28;20491;-84
2022/01/01 11:35:58;;;;;;;11.23;4.83;;;15.20;99.90;;;;;;5014978;28;20530;-83
2022/01/01 11:38:26;;;;;;;9.33;4.80;;;15.30;99.90;;;;;;5014888;28;20456;-85
2022/01/01 11:40:56;;;;;;;10.30;4.63;;;15.40;99.90;;;;;;5016074;28;20452;-84
2022/01/01 11:43:38;;;;;;;8.87;4.93;;;15.70;99.90;;;;;;5015279;28;20494;-84
2022/01/01 11:46:08;;;;;;;10.00;4.60;;;16.00;99.90;;;;;;5015477;28;20758;-84
2022/01/01 11:48:49;;;;;;;12.13;4.57;;;16.10;99.90;;;;;;5015358;28;20596;-83
2022/01/01 11:51:32;;;;;;;8.57;4.50;;;16.50;98.90;;;;;;5015499;28;20993;-83
2022/01/01 11:54:25;;;;;;;11.97;4.40;;;16.90;97.80;;;;;;5015448;28;20463;-84
2022/01/01 11:57:07;;;;;;;7.40;4.30;;;17.10;96.30;;;;;;5013236;28;20463;-84
2022/01/01 11:59:45;;;;;;;6.10;3.30;;;17.40;95.60;;;;;;5014987;28;20838;-84
2022/01/01 12:02:41;;;;;;;8.67;3.63;;;17.50;93.40;;;;;;5015342;28;20988;-85
2022/01/01 12:05:14;;;;;;;6.77;3.20;;;17.40;92.60;;;;;;5015026;28;20867;-84
2022/01/01 12:07:49;;;;;;;9.87;3.50;;;17.20;92.50;;;;;;5015101;28;20459;-85
2022/01/01 12:10:22;;;;;;;7.87;2.93;;;17.00;92.90;;;;;;5014778;28;20487;-83
2022/01/01 12:12:51;;;;;;;7.97;2.87;;;17.00;93.20;;;;;;5015189;28;20478;-85
2022/01/01 12:15:27;;;;;;;6.70;3.90;;;17.00;93.50;;;;;;5015118;28;20450;-83
2022/01/01 12:17:56;;;;;;;6.03;3.07;;;17.10;93.30;;;;;;5014863;28;20457;-84
2022/01/01 12:20:26;;;;;;;8.27;2.97;;;17.20;92.40;;;;;;5014850;28;20457;-84
2022/01/01 12:22:53;;;;;;;6.67;2.83;;;16.80;92.30;;;;;;5014516;28;20492;-83
2022/01/01 12:25:25;;;;;;;6.73;2.77;;;16.90;93.80;;;;;;5015324;28;20468;-83
2022/01/01 12:27:53;;;;;;;7.00;2.83;;;16.80;93.80;;;;;;5018304;28;20729;-84
2022/01/01 12:30:40;;;;;;;9.73;3.17;;;17.10;93.10;;;;;;5017788;28;20489;-83
2022/01/01 12:33:09;;;;;;;6.93;3.10;;;17.20;92.70;;;;;;5017839;28;20844;-84